Time;durP1;ratioP1;P1;durP2;ratioP2;P2;SDS_P1;SDS_P2;PMS_P1;PMS_P2;Temp;Humidity;BMP_temperature;BMP_pressure;BME280_temperature;BME280_humidity;BME280_pressure;Samples;Min_cycle;Max_cycle;Signal;HPM_P1;HPM_P2
2023/10/06 00:01:11;;;;;;;;;;;;;;;18.02;44.69;101213.81;5420518;32;35220;-71
2023/10/06 00:04:15;;;;;;;;;;;;;;;17.31;45.69;101214.16;5420717;32;34017;-71
2023/10/06 00:07:20;;;;;;;;;;;;;;;17.70;45.18;101218.25;5423871;32;34792;-64
2023/10/06 00:10:26;;;;;;;;;;;;;;;17.71;45.11;101219.09;5420404;32;36760;-64
2023/10/06 00:13:29;;;;;;;;;;;;;;;17.28;46.28;101221.47;5425221;32;35238;-71
2023/10/06 00:16:38;;;;;;;;;;;;;;;17.20;46.21;101219.22;5419283;32;35697;-72
2023/10/06 00:19:42;;;;;;;;;;;;;;;16.86;47.20;101216.63;5422225;32;35428;-70
2023/10/06 00:22:47;;;;;;;;;;;;;;;16.87;47.14;101218.31;5425252;32;34229;-64
2023/10/06 00:25:51;;;;;;;;;;;;;;;16.64;47.66;101215.03;5419945;32;35620;-71
2023/10/06 00:28:54;;;;;;;;;;;;;;;16.96;47.37;101209.91;5417854;32;34605;-65
2023/10/06 00:32:01;;;;;;;;;;;;;;;17.80;45.27;101216.81;5417126;32;34391;-64
2023/10/06 00:35:14;;;;;;;;;;;;;;;17.22;46.25;101219.13;5425685;32;34737;-73
2023/10/06 00:38:16;;;;;;;;;;;;;;;17.15;46.50;101223.06;5420766;32;35225;-64
2023/10/06 00:41:20;;;;;;;;;;;;;;;16.76;47.45;101226.87;5418159;32;34638;-63
2023/10/06 00:44:23;;;;;;;;;;;;;;;16.64;48.03;101223.00;5419882;32;37629;-72
2023/10/06 00:47:25;;;;;;;;;;;;;;;16.90;47.49;101226.16;5415226;32;34679;-65
2023/10/06 00:50:32;;;;;;;;;;;;;;;16.61;48.09;101214.31;5422347;32;34300;-71
2023/10/06 00:53:34;;;;;;;;;;;;;;;17.29;46.68;101221.38;5418872;32;35043;-71
2023/10/06 00:56:38;;;;;;;;;;;;;;;16.69;47.72;101226.28;5421339;32;35913;-71
2023/10/06 00:59:41;;;;;;;;;;;;;;;16.59;47.83;101222.38;5419553;32;34927;-66
2023/10/06 01:02:43;;;;;;;;;;;;;;;16.84;47.63;101231.78;5422493;32;34875;-71
2023/10/06 01:05:46;;;;;;;;;;;;;;;16.60;47.61;101232.03;5422147;32;34501;-71
2023/10/06 01:08:54;;;;;;;;;;;;;;;17.21;46.13;101223.59;5409219;32;35312;-72
2023/10/06 01:11:57;;;;;;;;;;;;;;;17.41;45.09;101229.63;5417360;32;35071;-71
2023/10/06 01:15:05;;;;;;;;;;;;;;;16.89;45.32;101221.78;5409808;32;35260;-72
2023/10/06 01:18:08;;;;;;;;;;;;;;;16.27;46.87;101223.97;5417535;32;37236;-64
2023/10/06 01:21:17;;;;;;;;;;;;;;;17.09;44.56;101221.59;5405611;32;35672;-71
2023/10/06 01:24:26;;;;;;;;;;;;;;;16.80;45.16;101223.09;5420844;32;35507;-72
2023/10/06 01:27:28;;;;;;;;;;;;;;;17.69;43.35;101211.22;5406745;32;34705;-71
2023/10/06 01:30:30;;;;;;;;;;;;;;;17.40;43.69;101223.47;5422982;32;35486;-72
2023/10/06 01:33:32;;;;;;;;;;;;;;;17.13;44.32;101231.13;5426686;32;35369;-73
2023/10/06 01:36:37;;;;;;;;;;;;;;;17.31;44.14;101222.12;5418900;32;35507;-64
2023/10/06 01:39:40;;;;;;;;;;;;;;;16.70;45.58;101233.34;5407809;32;34199;-71
2023/10/06 01:42:45;;;;;;;;;;;;;;;16.76;45.78;101233.03;5432014;32;35154;-63
2023/10/06 01:45:47;;;;;;;;;;;;;;;17.57;44.04;101241.13;5412460;32;34433;-65
2023/10/06 01:48:49;;;;;;;;;;;;;;;17.36;44.69;101242.31;5425531;32;34285;-64
2023/10/06 01:51:51;;;;;;;;;;;;;;;17.38;44.69;101237.75;5420042;32;34250;-73
2023/10/06 01:55:01;;;;;;;;;;;;;;;17.80;43.72;101238.09;5415427;32;35989;-71
2023/10/06 01:58:04;;;;;;;;;;;;;;;17.58;44.31;101242.84;5422792;32;34799;-71
2023/10/06 02:01:06;;;;;;;;;;;;;;;17.74;44.22;101246.41;5406658;32;35623;-71
2023/10/06 02:04:10;;;;;;;;;;;;;;;17.21;45.17;101246.63;5425518;32;34108;-65
2023/10/06 02:07:13;;;;;;;;;;;;;;;17.24;45.33;101244.66;5421796;32;34826;-71
2023/10/06 02:10:16;;;;;;;;;;;;;;;17.24;45.25;101249.12;5420007;32;33918;-70
2023/10/06 02:13:21;;;;;;;;;;;;;;;16.58;47.26;101252.50;5417265;32;35396;-71
2023/10/06 02:16:26;;;;;;;;;;;;;;;16.61;46.96;101255.00;5420688;32;35976;-71
2023/10/06 02:19:28;;;;;;;;;;;;;;;17.00;46.27;101257.47;5425060;32;34873;-70
2023/10/06 02:22:30;;;;;;;;;;;;;;;17.23;45.75;101258.03;5422056;32;34777;-63
2023/10/06 02:25:33;;;;;;;;;;;;;;;16.98;46.28;101261.13;5425367;32;35012;-64
2023/10/06 02:28:40;;;;;;;;;;;;;;;16.76;46.94;101258.72;5421685;32;35388;-64
2023/10/06 02:31:42;;;;;;;;;;;;;;;16.43;47.57;101255.94;5425530;32;34547;-64
2023/10/06 02:34:45;;;;;;;;;;;;;;;15.89;49.05;101255.00;5414991;32;34618;-72
2023/10/06 02:37:49;;;;;;;;;;;;;;;16.84;46.96;101255.66;5420357;32;36001;-64
2023/10/06 02:40:51;;;;;;;;;;;;;;;16.65;47.35;101261.88;5426652;32;34517;-73
2023/10/06 02:43:53;;;;;;;;;;;;;;;16.74;47.17;101264.13;5402616;32;34624;-64
2023/10/06 02:46:55;;;;;;;;;;;;;;;17.36;45.78;101250.28;5426116;32;35262;-65
2023/10/06 02:49:59;;;;;;;;;;;;;;;16.96;46.39;101253.25;5408422;32;34808;-64
2023/10/06 02:53:04;;;;;;;;;;;;;;;16.73;47.24;101262.38;5423525;32;34603;-65
2023/10/06 02:56:08;;;;;;;;;;;;;;;16.23;48.28;101246.31;5420024;32;35125;-64
2023/10/06 02:59:24;;;;;;;;;;;;;;;16.31;48.16;101249.44;5421123;32;34911;-70
2023/10/06 03:02:27;;;;;;;;;;;;;;;16.38;48.10;101263.25;5425863;32;34490;-71
2023/10/06 03:05:38;;;;;;;;;;;;;;;16.04;48.82;101256.94;5419458;32;35500;-72
2023/10/06 03:08:42;;;;;;;;;;;;;;;15.86;49.03;101253.38;5417647;32;35522;-72
2023/10/06 03:11:49;;;;;;;;;;;;;;;15.58;49.74;101261.69;5415526;32;36648;-64
2023/10/06 03:14:53;;;;;;;;;;;;;;;15.58;49.99;101256.41;5414401;32;35525;-64
2023/10/06 03:17:56;;;;;;;;;;;;;;;16.03;48.68;101257.84;5417430;32;34344;-64
2023/10/06 03:21:13;;;;;;;;;;;;;;;16.18;48.43;101258.94;5410067;32;34763;-71
2023/10/06 03:24:31;;;;;;;;;;;;;;;15.63;49.72;101266.81;5416205;32;34961;-64
2023/10/06 03:27:33;;;;;;;;;;;;;;;15.95;49.13;101278.56;5416454;32;35117;-63
2023/10/06 03:30:35;;;;;;;;;;;;;;;15.31;50.91;101294.75;5419573;32;34055;-64
2023/10/06 03:33:38;;;;;;;;;;;;;;;15.97;49.34;101289.97;5423274;32;34561;-72
2023/10/06 03:36:46;;;;;;;;;;;;;;;15.91;49.42;101301.75;5404357;32;34347;-64
2023/10/06 03:39:50;;;;;;;;;;;;;;;15.77;49.95;101282.94;5415718;32;34244;-63
2023/10/06 03:42:52;;;;;;;;;;;;;;;16.30;48.81;101292.81;5412653;32;35373;-72
2023/10/06 03:45:54;;;;;;;;;;;;;;;15.97;49.72;101306.75;5423267;32;34932;-64
2023/10/06 03:48:57;;;;;;;;;;;;;;;16.30;48.90;101297.28;5416051;32;35454;-65
2023/10/06 03:51:59;;;;;;;;;;;;;;;16.25;49.08;101289.53;5417140;32;34249;-71
2023/10/06 03:55:05;;;;;;;;;;;;;;;14.99;52.75;101293.50;5401889;32;34301;-64
2023/10/06 03:58:09;;;;;;;;;;;;;;;15.62;51.21;101291.63;5413527;32;38262;-64
2023/10/06 04:01:26;;;;;;;;;;;;;;;16.14;49.87;101287.38;5423422;32;35161;-71
2023/10/06 04:04:28;;;;;;;;;;;;;;;15.78;50.67;101295.28;5418469;32;35308;-72
2023/10/06 04:07:30;;;;;;;;;;;;;;;16.07;50.19;101296.56;5420981;32;34412;-64
2023/10/06 04:10:36;;;;;;;;;;;;;;;15.55;51.58;101308.69;5405637;32;34669;-71
2023/10/06 04:13:39;;;;;;;;;;;;;;;15.05;53.52;101312.63;5414550;32;35504;-64
2023/10/06 04:16:47;;;;;;;;;;;;;;;15.03;53.37;101316.28;5433933;32;35914;-71
2023/10/06 04:19:51;;;;;;;;;;;;;;;15.08;53.66;101317.81;5422855;32;35221;-64
2023/10/06 04:22:53;;;;;;;;;;;;;;;15.48;52.69;101317.84;5426788;32;34259;-71
2023/10/06 04:25:56;;;;;;;;;;;;;;;15.44;52.51;101320.63;5421793;32;35065;-73
2023/10/06 04:28:59;;;;;;;;;;;;;;;15.82;51.64;101311.91;5422126;32;34778;-65
2023/10/06 04:32:01;;;;;;;;;;;;;;;15.37;52.37;101319.16;5426844;32;35367;-65
2023/10/06 04:35:04;;;;;;;;;;;;;;;15.87;51.43;101310.75;5414466;32;34266;-70
2023/10/06 04:38:09;;;;;;;;;;;;;;;15.95;50.97;101311.25;5427719;32;34135;-64
2023/10/06 04:41:14;;;;;;;;;;;;;;;14.87;53.99;101318.69;5427985;32;34245;-72
2023/10/06 04:44:17;;;;;;;;;;;;;;;14.97;53.59;101320.03;5424169;32;35729;-73
2023/10/06 04:47:19;;;;;;;;;;;;;;;14.56;55.22;101322.63;5425215;32;35059;-64
2023/10/06 04:50:22;;;;;;;;;;;;;;;15.12;53.66;101326.47;5411897;32;35000;-72
2023/10/06 04:53:24;;;;;;;;;;;;;;;15.06;53.66;101322.28;5418998;32;36766;-64
2023/10/06 04:56:32;;;;;;;;;;;;;;;15.60;52.24;101318.16;5415191;32;35651;-71
2023/10/06 04:59:34;;;;;;;;;;;;;;;14.94;54.30;101332.53;5424646;32;35123;-72
2023/10/06 05:02:38;;;;;;;;;;;;;;;15.89;51.71;101331.87;5407525;32;35454;-71
2023/10/06 05:05:42;;;;;;;;;;;;;;;15.88;51.34;101338.13;5423184;32;34334;-64
2023/10/06 05:08:47;;;;;;;;;;;;;;;14.99;54.20;101344.66;5423811;32;34436;-70
2023/10/06 05:11:49;;;;;;;;;;;;;;;15.23;53.38;101344.53;5422889;32;34376;-64
2023/10/06 05:14:52;;;;;;;;;;;;;;;15.78;52.22;101350.06;5413419;32;34605;-72
2023/10/06 05:17:55;;;;;;;;;;;;;;;15.31;53.33;101358.31;5420783;32;35329;-64
2023/10/06 05:20:58;;;;;;;;;;;;;;;15.76;52.19;101359.88;5424581;32;34831;-73
2023/10/06 05:24:00;;;;;;;;;;;;;;;15.90;51.34;101368.06;5429015;32;34365;-71
2023/10/06 05:27:02;;;;;;;;;;;;;;;15.13;53.24;101371.44;5423883;32;34345;-64
2023/10/06 05:30:06;;;;;;;;;;;;;;;14.99;54.51;101383.50;5409880;32;34740;-65
2023/10/06 05:33:09;;;;;;;;;;;;;;;15.68;52.61;101369.03;5418173;32;34762;-64
2023/10/06 05:36:11;;;;;;;;;;;;;;;16.38;50.59;101372.03;5425523;32;35630;-71
2023/10/06 05:39:14;;;;;;;;;;;;;;;16.33;50.62;101372.25;5423776;32;34677;-64
2023/10/06 05:42:16;;;;;;;;;;;;;;;16.55;49.94;101374.75;5426460;32;35334;-64
2023/10/06 05:45:19;;;;;;;;;;;;;;;16.60;49.84;101375.34;5422434;32;35375;-71
2023/10/06 05:48:22;;;;;;;;;;;;;;;16.52;49.99;101388.16;5409709;32;35465;-64
2023/10/06 05:51:25;;;;;;;;;;;;;;;16.43;50.80;101394.75;5424001;32;35048;-70
2023/10/06 05:54:29;;;;;;;;;;;;;;;16.70;50.28;101387.28;5421270;32;34256;-72
2023/10/06 05:57:31;;;;;;;;;;;;;;;16.32;50.86;101396.19;5416312;32;34888;-72
2023/10/06 06:00:33;;;;;;;;;;;;;;;15.15;54.11;101406.66;5412523;32;34217;-71
2023/10/06 06:03:35;;;;;;;;;;;;;;;15.91;52.48;101406.94;5430930;32;34552;-65
2023/10/06 06:06:37;;;;;;;;;;;;;;;16.14;51.82;101408.50;5424546;32;34186;-72
2023/10/06 06:09:39;;;;;;;;;;;;;;;15.62;52.38;101416.16;5419493;32;35952;-72
2023/10/06 06:12:41;;;;;;;;;;;;;;;15.68;53.13;101416.75;5410520;32;35268;-73
2023/10/06 06:15:43;;;;;;;;;;;;;;;16.40;51.22;101405.50;5426277;32;34361;-65
2023/10/06 06:18:46;;;;;;;;;;;;;;;16.77;50.46;101401.97;5433043;32;36266;-72
2023/10/06 06:21:50;;;;;;;;;;;;;;;16.61;51.05;101416.03;5419189;32;35023;-73
2023/10/06 06:24:52;;;;;;;;;;;;;;;16.62;50.76;101408.00;5408428;32;34412;-72
2023/10/06 06:27:55;;;;;;;;;;;;;;;16.57;50.28;101411.81;5425063;32;35090;-74
2023/10/06 06:31:03;;;;;;;;;;;;;;;16.37;50.66;101420.72;5423090;32;34206;-73
2023/10/06 06:34:06;;;;;;;;;;;;;;;16.88;49.23;101425.38;5418468;32;32742;-65
2023/10/06 06:37:12;;;;;;;;;;;;;;;16.85;49.08;101416.69;5427689;32;34527;-72
2023/10/06 06:40:15;;;;;;;;;;;;;;;17.37;49.02;101422.91;5431614;32;34839;-73
2023/10/06 06:43:19;;;;;;;;;;;;;;;17.66;47.69;101431.19;5419720;32;35720;-65
2023/10/06 06:46:22;;;;;;;;;;;;;;;18.23;46.61;101434.38;5423386;32;34161;-73
2023/10/06 06:49:24;;;;;;;;;;;;;;;17.80;47.17;101434.88;5422285;32;34428;-73
2023/10/06 06:52:27;;;;;;;;;;;;;;;17.74;46.76;101448.47;5412629;32;34643;-73
2023/10/06 06:55:29;;;;;;;;;;;;;;;19.30;43.70;101446.97;5427766;32;35111;-73
2023/10/06 06:58:35;;;;;;;;;;;;;;;19.30;43.85;101455.81;5424983;32;224040;-74
2023/10/06 07:01:38;;;;;;;;;;;;;;;18.41;45.84;101462.62;5422579;32;34498;-65
2023/10/06 07:04:41;;;;;;;;;;;;;;;18.18;46.69;101466.56;5425542;32;34316;-66
2023/10/06 07:07:43;;;;;;;;;;;;;;;19.60;43.58;101468.34;5414026;32;35393;-74
2023/10/06 07:10:52;;;;;;;;;;;;;;;19.81;43.15;101475.03;5423935;32;34271;-72
2023/10/06 07:13:55;;;;;;;;;;;;;;;20.19;42.11;101467.34;5426091;32;34554;-72
2023/10/06 07:17:00;;;;;;;;;;;;;;;21.71;38.55;101462.81;5429778;32;33832;-66
2023/10/06 07:20:03;;;;;;;;;;;;;;;21.49;39.05;101472.28;5423449;32;34947;-65
2023/10/06 07:23:06;;;;;;;;;;;;;;;21.42;38.44;101478.16;5422418;32;34127;-73
2023/10/06 07:26:13;;;;;;;;;;;;;;;21.30;38.94;101471.81;5424987;32;35987;-65
2023/10/06 07:29:15;;;;;;;;;;;;;;;22.78;36.10;101471.28;5423440;32;37292;-65
2023/10/06 07:32:18;;;;;;;;;;;;;;;24.14;32.83;101477.91;5422388;32;35446;-65
2023/10/06 07:35:30;;;;;;;;;;;;;;;23.64;33.96;101468.47;5407284;32;34671;-66
2023/10/06 07:38:33;;;;;;;;;;;;;;;23.71;33.55;101475.91;5416039;32;35952;-72
2023/10/06 07:41:36;;;;;;;;;;;;;;;23.17;34.75;101473.72;5408589;32;34639;-73
2023/10/06 07:44:38;;;;;;;;;;;;;;;20.62;39.56;101495.88;5433145;32;34335;-72
2023/10/06 07:47:42;;;;;;;;;;;;;;;19.90;41.36;101498.50;5427352;32;35564;-65
2023/10/06 07:50:44;;;;;;;;;;;;;;;20.13;40.31;101497.09;5408970;32;35115;-72
2023/10/06 07:53:46;;;;;;;;;;;;;;;19.24;41.44;101497.97;5431148;32;34435;-65
2023/10/06 07:56:49;;;;;;;;;;;;;;;20.25;40.32;101491.00;5422593;32;35242;-65
2023/10/06 07:59:51;;;;;;;;;;;;;;;18.55;43.58;101499.16;5426612;32;34282;-64
2023/10/06 08:03:03;;;;;;;;;;;;;;;17.91;45.33;101498.13;5429166;32;34731;-66
2023/10/06 08:06:05;;;;;;;;;;;;;;;18.54;44.51;101498.28;5417650;32;34651;-64
2023/10/06 08:09:10;;;;;;;;;;;;;;;18.13;45.17;101505.84;5426014;32;34273;-71
2023/10/06 08:12:13;;;;;;;;;;;;;;;18.51;44.47;101505.59;5429985;32;32380;-65
2023/10/06 08:15:21;;;;;;;;;;;;;;;19.34;42.83;101491.16;5429450;32;35527;-72
2023/10/06 08:18:23;;;;;;;;;;;;;;;18.96;43.74;101506.69;5422137;32;35926;-72
2023/10/06 08:21:28;;;;;;;;;;;;;;;18.68;43.49;101510.91;5429427;32;34690;-72
2023/10/06 08:24:30;;;;;;;;;;;;;;;18.37;44.28;101514.31;5419070;32;34722;-66
2023/10/06 08:27:32;;;;;;;;;;;;;;;18.36;44.41;101510.81;5428995;32;34380;-66
2023/10/06 08:30:35;;;;;;;;;;;;;;;18.48;44.71;101511.06;5431975;32;35287;-66
2023/10/06 08:33:38;;;;;;;;;;;;;;;18.29;45.23;101512.09;5431379;32;34294;-72
2023/10/06 08:36:41;;;;;;;;;;;;;;;18.37;45.00;101520.50;5431649;32;34444;-66
2023/10/06 08:39:46;;;;;;;;;;;;;;;18.29;45.21;101528.06;5431233;32;35393;-66
2023/10/06 08:42:52;;;;;;;;;;;;;;;18.80;43.75;101520.84;5433331;32;35776;-65
2023/10/06 08:45:55;;;;;;;;;;;;;;;18.80;43.78;101527.97;5429921;32;34868;-65
2023/10/06 08:48:58;;;;;;;;;;;;;;;20.08;41.54;101520.53;5433462;32;34245;-65
2023/10/06 08:52:00;;;;;;;;;;;;;;;18.50;44.29;101520.69;5429569;32;35133;-72
2023/10/06 08:55:05;;;;;;;;;;;;;;;19.30;42.17;101519.78;5424222;32;35418;-72
2023/10/06 08:58:07;;;;;;;;;;;;;;;18.85;43.13;101526.78;5429067;32;34944;-65
2023/10/06 09:01:09;;;;;;;;;;;;;;;19.06;42.60;101518.53;5414793;32;34694;-66
2023/10/06 09:04:11;;;;;;;;;;;;;;;18.54;43.07;101508.94;5419944;32;34387;-72
2023/10/06 09:07:16;;;;;;;;;;;;;;;18.86;41.91;101512.50;5422933;32;35647;-71
2023/10/06 09:10:18;;;;;;;;;;;;;;;18.35;43.11;101516.19;5431565;32;34324;-65
2023/10/06 09:13:21;;;;;;;;;;;;;;;18.82;41.87;101508.31;5430069;32;34298;-65
2023/10/06 09:16:24;;;;;;;;;;;;;;;18.87;41.75;101514.25;5422586;32;34849;-66
2023/10/06 09:19:26;;;;;;;;;;;;;;;18.66;41.88;101510.06;5434763;32;35063;-72
2023/10/06 09:22:32;;;;;;;;;;;;;;;19.46;40.41;101509.97;5422906;32;34735;-65
2023/10/06 09:25:41;;;;;;;;;;;;;;;19.39;40.34;101516.62;5423482;32;34116;-65
2023/10/06 09:28:52;;;;;;;;;;;;;;;19.82;38.52;101510.56;5432555;32;35582;-70
2023/10/06 09:31:57;;;;;;;;;;;;;;;19.25;38.85;101513.84;5422390;32;34998;-65
2023/10/06 09:35:17;;;;;;;;;;;;;;;19.65;37.96;101514.25;5427024;32;35038;-72
2023/10/06 09:38:21;;;;;;;;;;;;;;;20.58;35.37;101505.88;5422630;32;35380;-72
2023/10/06 09:41:28;;;;;;;;;;;;;;;22.81;32.10;101496.06;5415336;32;35090;-72
2023/10/06 09:44:30;;;;;;;;;;;;;;;23.83;30.18;101484.84;5430471;32;34670;-71
2023/10/06 09:47:35;;;;;;;;;;;;;;;25.34;27.82;101477.16;5428261;32;34432;-67
2023/10/06 09:50:37;;;;;;;;;;;;;;;27.21;25.81;101466.97;5429927;32;35016;-67
2023/10/06 09:53:40;;;;;;;;;;;;;;;28.53;24.05;101464.28;5424698;32;35494;-66
2023/10/06 09:56:42;;;;;;;;;;;;;;;31.13;20.49;101444.56;5424575;32;34753;-67
2023/10/06 09:59:44;;;;;;;;;;;;;;;32.59;19.13;101447.03;5425831;32;35641;-67
2023/10/06 10:02:47;;;;;;;;;;;;;;;29.91;20.38;101447.63;5406404;32;34498;-68
2023/10/06 10:05:50;;;;;;;;;;;;;;;31.34;19.07;101447.63;5429963;32;34839;-72
2023/10/06 10:08:51;;;;;;;;;;;;;;;32.56;18.10;101449.25;5414042;32;35390;-72
2023/10/06 10:12:00;;;;;;;;;;;;;;;32.36;18.22;101448.84;5427578;32;34810;-67
2023/10/06 10:15:15;;;;;;;;;;;;;;;33.10;18.05;101441.09;5423625;32;35554;-67
2023/10/06 10:18:37;;;;;;;;;;;;;;;34.05;16.70;101426.94;5416285;32;35366;-67
2023/10/06 10:21:41;;;;;;;;;;;;;;;30.11;20.32;101438.28;5428942;32;35527;-68
2023/10/06 10:24:44;;;;;;;;;;;;;;;30.83;19.80;101422.44;5424589;32;34288;-73
2023/10/06 10:28:08;;;;;;;;;;;;;;;28.23;22.39;101426.69;5414609;32;33839;-73
2023/10/06 10:31:17;;;;;;;;;;;;;;;30.82;20.01;101406.34;5421239;32;34691;-68
2023/10/06 10:34:22;;;;;;;;;;;;;;;28.85;21.78;101412.41;5426914;32;34866;-72
2023/10/06 10:37:26;;;;;;;;;;;;;;;29.84;21.08;101404.06;5419906;32;34406;-71
2023/10/06 10:40:29;;;;;;;;;;;;;;;32.57;18.36;101391.91;5427085;32;34166;-71
2023/10/06 10:43:31;;;;;;;;;;;;;;;29.81;20.91;101392.69;5428328;32;34270;-73
2023/10/06 10:46:46;;;;;;;;;;;;;;;28.47;22.67;101405.41;5426887;32;34586;-72
2023/10/06 10:49:48;;;;;;;;;;;;;;;27.51;23.51;101399.31;5420249;32;35000;-71
2023/10/06 10:52:52;;;;;;;;;;;;;;;25.66;26.14;101396.34;5410200;32;35017;-72
2023/10/06 10:55:54;;;;;;;;;;;;;;;24.70;27.65;101396.44;5408811;32;34876;-66
2023/10/06 10:58:56;;;;;;;;;;;;;;;24.65;27.64;101391.44;5425042;32;34878;-66
2023/10/06 11:01:59;;;;;;;;;;;;;;;23.41;29.80;101395.06;5413313;32;34730;-66
2023/10/06 11:05:04;;;;;;;;;;;;;;;23.31;29.31;101402.94;5420947;32;33893;-67
2023/10/06 11:08:06;;;;;;;;;;;;;;;23.97;28.62;101397.84;5431398;32;34049;-71
2023/10/06 11:11:10;;;;;;;;;;;;;;;23.33;29.68;101397.50;5423377;32;35376;-70
2023/10/06 11:14:12;;;;;;;;;;;;;;;24.04;28.84;101399.06;5433612;32;34615;-71
2023/10/06 11:17:14;;;;;;;;;;;;;;;23.64;29.42;101386.13;5428509;32;35009;-68
2023/10/06 11:20:21;;;;;;;;;;;;;;;23.91;29.02;101388.44;5426371;32;34692;-71
2023/10/06 11:23:24;;;;;;;;;;;;;;;24.03;28.99;101386.63;5429258;32;34400;-66
2023/10/06 11:26:27;;;;;;;;;;;;;;;24.34;28.86;101376.09;5432673;32;34554;-71
2023/10/06 11:29:32;;;;;;;;;;;;;;;24.38;28.76;101375.75;5428007;32;34645;-70
2023/10/06 11:32:34;;;;;;;;;;;;;;;24.39;28.87;101372.06;5430412;32;33840;-71
2023/10/06 11:35:37;;;;;;;;;;;;;;;23.87;29.91;101380.75;5412592;32;35289;-66
2023/10/06 11:38:40;;;;;;;;;;;;;;;22.62;31.82;101383.16;5421008;32;36090;-65
2023/10/06 11:41:43;;;;;;;;;;;;;;;23.84;30.30;101387.25;5429019;32;35053;-66
2023/10/06 11:44:45;;;;;;;;;;;;;;;24.45;29.47;101376.94;5428860;32;34910;-70
2023/10/06 11:47:48;;;;;;;;;;;;;;;25.78;27.26;101371.09;5421676;32;35041;-70
2023/10/06 11:50:58;;;;;;;;;;;;;;;25.56;27.93;101369.37;5424298;32;35415;-67
2023/10/06 11:54:00;;;;;;;;;;;;;;;24.77;28.84;101354.63;5418793;32;35557;-71
2023/10/06 11:57:03;;;;;;;;;;;;;;;24.87;28.88;101358.25;5422964;32;35080;-66
2023/10/06 12:00:05;;;;;;;;;;;;;;;23.94;30.08;101368.56;5420443;32;34781;-70
2023/10/06 12:03:10;;;;;;;;;;;;;;;23.84;30.41;101371.12;5416882;32;34073;-66
2023/10/06 12:06:12;;;;;;;;;;;;;;;23.87;30.21;101354.75;5423421;32;35304;-67
2023/10/06 12:09:24;;;;;;;;;;;;;;;24.45;29.49;101325.03;5408059;32;35376;-71
2023/10/06 12:12:26;;;;;;;;;;;;;;;24.36;29.62;101318.59;5423203;32;35741;-70
2023/10/06 12:15:30;;;;;;;;;;;;;;;23.77;30.72;101318.91;5420638;32;34781;-71
2023/10/06 12:18:33;;;;;;;;;;;;;;;25.26;28.40;101315.53;5429280;32;35226;-67
2023/10/06 12:21:35;;;;;;;;;;;;;;;23.95;30.30;101317.41;5409416;32;34650;-71
2023/10/06 12:24:38;;;;;;;;;;;;;;;23.51;31.29;101313.75;5426349;32;34744;-67
2023/10/06 12:27:43;;;;;;;;;;;;;;;23.85;30.81;101296.81;5424839;32;34848;-70
2023/10/06 12:30:45;;;;;;;;;;;;;;;24.30;30.19;101292.22;5423957;32;35478;-66
2023/10/06 12:33:54;;;;;;;;;;;;;;;24.04;30.42;101299.72;5421347;32;35650;-71
2023/10/06 12:37:01;;;;;;;;;;;;;;;24.01;30.74;101297.28;5406227;32;36417;-72
2023/10/06 12:40:04;;;;;;;;;;;;;;;25.31;28.96;101286.38;5420156;32;35014;-70
2023/10/06 12:43:07;;;;;;;;;;;;;;;23.75;30.94;101285.94;5413928;32;34776;-66
2023/10/06 12:46:09;;;;;;;;;;;;;;;23.77;30.73;101294.75;5426415;32;35573;-66
2023/10/06 12:49:18;;;;;;;;;;;;;;;23.09;32.23;101293.81;5423803;32;34291;-71
2023/10/06 12:52:20;;;;;;;;;;;;;;;23.92;31.10;101282.78;5424334;32;35035;-71
2023/10/06 12:55:24;;;;;;;;;;;;;;;24.07;30.85;101285.19;5407884;32;34964;-70
2023/10/06 12:58:27;;;;;;;;;;;;;;;23.76;31.15;101288.53;5423472;32;34869;-70
2023/10/06 13:01:31;;;;;;;;;;;;;;;23.62;31.51;101283.41;5425296;32;35639;-66
2023/10/06 13:04:33;;;;;;;;;;;;;;;23.77;31.16;101284.03;5424034;32;34062;-71
2023/10/06 13:07:36;;;;;;;;;;;;;;;23.72;31.42;101280.84;5427365;32;35317;-66
2023/10/06 13:10:37;;;;;;;;;;;;;;;24.32;30.71;101280.34;5421664;32;34882;-71
2023/10/06 13:13:39;;;;;;;;;;;;;;;24.79;29.75;101286.28;5426836;32;35401;-71
2023/10/06 13:16:42;;;;;;;;;;;;;;;24.91;29.95;101275.47;5428138;32;35105;-65
2023/10/06 13:19:44;;;;;;;;;;;;;;;27.73;26.36;101273.06;5424770;32;34797;-67
2023/10/06 13:22:49;;;;;;;;;;;;;;;30.69;22.46;101272.00;5430222;32;35447;-67
2023/10/06 13:25:51;;;;;;;;;;;;;;;28.68;24.45;101269.88;5418847;32;36727;-67
2023/10/06 13:28:53;;;;;;;;;;;;;;;27.61;25.71;101285.03;5414392;32;35447;-67
2023/10/06 13:31:55;;;;;;;;;;;;;;;30.86;21.98;101282.88;5418621;32;34740;-65
2023/10/06 13:34:57;;;;;;;;;;;;;;;31.89;20.82;101277.56;5422671;32;34807;-71
2023/10/06 13:37:59;;;;;;;;;;;;;;;34.53;17.93;101269.09;5421545;32;34966;-68
2023/10/06 13:41:01;;;;;;;;;;;;;;;34.15;18.20;101259.22;5422879;32;34316;-68
2023/10/06 13:44:04;;;;;;;;;;;;;;;30.22;22.04;101266.34;5428094;32;34350;-70
2023/10/06 13:47:06;;;;;;;;;;;;;;;27.85;25.12;101273.72;5423678;32;35002;-67
2023/10/06 13:50:12;;;;;;;;;;;;;;;25.54;28.27;101263.69;5427866;32;34996;-66
2023/10/06 13:53:15;;;;;;;;;;;;;;;26.81;26.41;101260.25;5422027;32;34686;-69
2023/10/06 13:56:18;;;;;;;;;;;;;;;25.16;28.98;101252.75;5421897;32;35301;-66
2023/10/06 13:59:20;;;;;;;;;;;;;;;25.99;28.01;101251.66;5428297;32;35208;-70
2023/10/06 14:02:24;;;;;;;;;;;;;;;24.57;30.23;101251.47;5419908;32;35477;-71
2023/10/06 14:05:30;;;;;;;;;;;;;;;24.96;29.54;101246.38;5425758;32;35162;-66
2023/10/06 14:08:33;;;;;;;;;;;;;;;24.38;30.66;101246.78;5423586;32;34340;-66
2023/10/06 14:11:36;;;;;;;;;;;;;;;24.50;30.31;101250.28;5423942;32;35220;-68
2023/10/06 14:17:52;;;;;;;;;;;;;;;25.02;30.25;101246.69;5423129;32;33920;-71
2023/10/06 14:20:57;;;;;;;;;;;;;;;24.34;30.46;101249.84;5410382;32;34651;-71
2023/10/06 14:24:02;;;;;;;;;;;;;;;23.42;32.31;101242.03;5420832;32;35801;-70
2023/10/06 14:27:06;;;;;;;;;;;;;;;23.56;31.90;101254.34;5414914;32;34868;-71
2023/10/06 14:30:09;;;;;;;;;;;;;;;23.17;32.51;101251.16;5425588;32;35599;-70
2023/10/06 14:45:59;;;;;;;;;;;;;;;22.49;33.70;101241.22;5423767;32;34689;-72
2023/10/06 14:49:03;;;;;;;;;;;;;;;23.22;32.60;101232.03;5422386;32;35079;-67
2023/10/06 14:52:08;;;;;;;;;;;;;;;22.87;33.13;101230.28;5412861;32;36389;-65
2023/10/06 14:55:10;;;;;;;;;;;;;;;23.36;32.69;101220.19;5421867;32;35975;-71
2023/10/06 14:58:12;;;;;;;;;;;;;;;22.98;33.00;101216.03;5426375;32;34841;-71
2023/10/06 15:01:14;;;;;;;;;;;;;;;22.94;33.22;101222.63;5419301;32;34881;-66
2023/10/06 15:04:16;;;;;;;;;;;;;;;23.32;32.33;101210.72;5420515;32;36351;-70
2023/10/06 15:07:19;;;;;;;;;;;;;;;23.14;31.78;101216.56;5407480;32;35170;-66
2023/10/06 15:10:20;;;;;;;;;;;;;;;21.98;34.19;101222.69;5423616;32;35365;-66
2023/10/06 15:13:23;;;;;;;;;;;;;;;22.75;33.09;101225.84;5427318;32;34444;-71
2023/10/06 15:16:25;;;;;;;;;;;;;;;22.85;33.45;101223.28;5422588;32;34387;-70
2023/10/06 15:19:27;;;;;;;;;;;;;;;22.60;33.62;101227.84;5426626;32;35499;-66
2023/10/06 15:22:29;;;;;;;;;;;;;;;22.71;33.62;101233.25;5423067;32;34759;-69
2023/10/06 15:25:31;;;;;;;;;;;;;;;22.02;34.57;101229.50;5427739;32;34350;-66
2023/10/06 15:28:33;;;;;;;;;;;;;;;22.60;33.94;101227.84;5423825;32;34383;-72
2023/10/06 15:31:40;;;;;;;;;;;;;;;22.57;34.64;101230.78;5423253;32;35169;-70
2023/10/06 15:34:42;;;;;;;;;;;;;;;23.03;34.00;101237.13;5432681;32;35518;-70
2023/10/06 15:37:46;;;;;;;;;;;;;;;22.10;35.10;101231.69;5415968;32;34484;-71
2023/10/06 15:41:10;;;;;;;;;;;;;;;22.48;35.00;101234.16;5426855;32;34933;-65
2023/10/06 15:44:15;;;;;;;;;;;;;;;22.66;34.92;101207.78;5423104;32;34212;-72
2023/10/06 15:47:17;;;;;;;;;;;;;;;22.25;35.11;101227.84;5424245;32;35544;-71
2023/10/06 15:50:19;;;;;;;;;;;;;;;22.37;34.89;101229.59;5426652;32;34205;-70
2023/10/06 15:53:26;;;;;;;;;;;;;;;21.96;35.58;101218.41;5419756;32;34829;-71
2023/10/06 15:56:29;;;;;;;;;;;;;;;21.87;36.10;101215.44;5423496;32;34875;-67
2023/10/06 15:59:32;;;;;;;;;;;;;;;22.23;35.62;101229.78;5422816;32;35204;-66